createdAt,value
2023-01-12T00:01:54.333Z,10.57
2023-01-12T00:04:21.281Z,6.60
2023-01-12T00:06:48.310Z,5.97
2023-01-12T00:09:15.588Z,5.17
2023-01-12T00:11:42.507Z,7.07
2023-01-12T00:14:09.767Z,6.87
2023-01-12T00:16:37.968Z,4.93
2023-01-12T00:19:12.617Z,5.67
2023-01-12T00:21:51.264Z,10.40
2023-01-12T00:24:19.270Z,8.07
2023-01-12T00:26:48.119Z,8.13
2023-01-12T00:29:15.243Z,8.83
2023-01-12T00:31:42.217Z,6.23
2023-01-12T00:34:10.863Z,8.37
2023-01-12T00:36:38.555Z,9.30
2023-01-12T00:39:06.185Z,5.50
2023-01-12T00:41:51.701Z,4.43
2023-01-12T00:44:37.082Z,5.90
2023-01-12T00:47:06.602Z,6.13
2023-01-12T00:49:35.321Z,7.80
2023-01-12T00:52:02.740Z,5.07
2023-01-12T00:54:29.736Z,5.67
2023-01-12T00:56:58.148Z,5.47
2023-01-12T00:59:25.055Z,5.97
2023-01-12T01:01:52.102Z,7.37
2023-01-12T01:04:19.215Z,7.13
2023-01-12T01:06:47.893Z,6.53
2023-01-12T01:09:14.996Z,4.47
2023-01-12T01:11:42.079Z,5.43
2023-01-12T01:14:09.382Z,6.63
2023-01-12T01:16:36.751Z,7.73
2023-01-12T01:19:05.808Z,7.63
2023-01-12T01:21:34.049Z,6.93
2023-01-12T01:24:02.272Z,5.27
2023-01-12T01:26:30.815Z,7.17
2023-01-12T01:28:58.128Z,6.07
2023-01-12T01:31:27.155Z,6.30
2023-01-12T01:33:54.306Z,4.90
2023-01-12T01:36:21.986Z,3.67
2023-01-12T01:38:50.387Z,3.67
2023-01-12T01:41:22.551Z,2.93
2023-01-12T01:43:56.732Z,3.60
2023-01-12T01:46:38.213Z,3.83
2023-01-12T01:49:28.219Z,2.83
2023-01-12T01:52:02.539Z,5.70
2023-01-12T01:54:37.475Z,3.03
2023-01-12T01:57:08.456Z,2.50
2023-01-12T01:59:39.794Z,3.10
2023-01-12T02:02:07.119Z,3.80
2023-01-12T02:04:35.365Z,1.87
2023-01-12T02:07:06.729Z,3.90
2023-01-12T02:09:33.628Z,2.37
2023-01-12T02:12:20.594Z,3.90
2023-01-12T02:15:10.223Z,1.40
2023-01-12T02:17:56.135Z,4.60
2023-01-12T02:21:03.302Z,5.37
2023-01-12T02:24:07.467Z,6.13
2023-01-12T02:27:25.199Z,5.23
2023-01-12T02:30:28.488Z,3.23
2023-01-12T02:33:14.268Z,5.40
2023-01-12T02:35:53.695Z,4.60
2023-01-12T02:38:34.059Z,5.50
2023-01-12T02:41:16.678Z,4.60
2023-01-12T02:43:44.675Z,3.63
2023-01-12T02:46:19.598Z,9.13
2023-01-12T02:48:55.898Z,8.53
2023-01-12T02:51:32.065Z,7.13
2023-01-12T02:54:04.553Z,10.13
2023-01-12T02:56:37.738Z,9.77
2023-01-12T02:59:13.169Z,9.30
2023-01-12T03:01:43.703Z,6.40
2023-01-12T03:04:13.901Z,5.20
2023-01-12T03:06:45.563Z,6.73
2023-01-12T03:09:16.274Z,5.37
2023-01-12T03:11:48.896Z,6.83
2023-01-12T03:14:17.604Z,4.90
2023-01-12T03:16:44.531Z,4.53
2023-01-12T03:19:18.521Z,4.67
2023-01-12T03:21:52.801Z,4.30
2023-01-12T03:24:26.442Z,6.27
2023-01-12T03:27:04.509Z,3.67
2023-01-12T03:29:37.883Z,4.70
2023-01-12T03:32:06.229Z,3.30
2023-01-12T03:34:36.066Z,5.60
2023-01-12T03:37:12.910Z,4.37
2023-01-12T03:39:50.579Z,5.83
2023-01-12T03:42:26.579Z,8.47
2023-01-12T03:45:09.608Z,4.27
2023-01-12T03:47:41.618Z,3.60
2023-01-12T03:50:16.499Z,4.43
2023-01-12T03:52:45.568Z,5.80
2023-01-12T03:55:17.171Z,5.27
2023-01-12T03:57:46.274Z,2.00
2023-01-12T04:00:16.826Z,3.77
2023-01-12T04:02:44.087Z,4.17
2023-01-12T04:05:14.373Z,4.47
2023-01-12T04:07:41.298Z,4.73
2023-01-12T04:10:09.302Z,3.07
2023-01-12T04:12:36.238Z,4.13
2023-01-12T04:15:03.845Z,3.90
2023-01-12T04:17:30.782Z,5.00
2023-01-12T04:19:57.617Z,5.43
2023-01-12T04:22:43.994Z,7.60
2023-01-12T04:25:12.432Z,6.77
2023-01-12T04:27:45.418Z,7.10
2023-01-12T04:30:13.727Z,4.93
2023-01-12T04:32:42.929Z,8.20
2023-01-12T04:35:12.189Z,5.97
2023-01-12T04:37:40.855Z,7.03
2023-01-12T04:40:10.736Z,7.17
2023-01-12T04:42:57.013Z,7.23
2023-01-12T04:45:23.876Z,7.27
2023-01-12T04:47:50.725Z,4.30
2023-01-12T04:50:17.702Z,4.10
2023-01-12T04:52:45.950Z,4.57
2023-01-12T04:55:12.949Z,4.33
2023-01-12T04:57:39.888Z,7.13
2023-01-12T05:00:09.028Z,5.50
2023-01-12T05:02:35.955Z,5.27
2023-01-12T05:05:05.177Z,4.77
2023-01-12T05:07:32.105Z,6.87
2023-01-12T05:10:18.942Z,4.03
2023-01-12T05:12:45.782Z,4.57
2023-01-12T05:15:12.708Z,9.00
2023-01-12T05:17:39.573Z,4.07
2023-01-12T05:20:08.818Z,3.67
2023-01-12T05:22:35.689Z,4.97
2023-01-12T05:25:04.772Z,3.80
2023-01-12T05:27:31.722Z,5.40
2023-01-12T05:29:59.627Z,6.17
2023-01-12T05:32:26.557Z,3.63
2023-01-12T05:34:53.510Z,5.67
2023-01-12T05:37:20.382Z,5.17
2023-01-12T05:39:47.254Z,4.93
2023-01-12T05:42:34.117Z,5.23
2023-01-12T05:45:01.022Z,3.90
2023-01-12T05:47:28.325Z,7.00
2023-01-12T05:49:55.208Z,3.43
2023-01-12T05:52:22.150Z,5.33
2023-01-12T05:54:49.076Z,1.97
2023-01-12T05:57:17.302Z,2.90
2023-01-12T05:59:44.275Z,2.90
2023-01-12T06:02:13.773Z,3.50
2023-01-12T06:04:40.698Z,3.73
2023-01-12T06:07:07.724Z,3.80
2023-01-12T06:09:34.671Z,2.73
2023-01-12T06:12:20.247Z,3.87
2023-01-12T06:14:48.452Z,3.23
2023-01-12T06:17:15.401Z,3.50
2023-01-12T06:19:42.284Z,2.83
2023-01-12T06:22:10.058Z,2.80
2023-01-12T06:24:37.176Z,3.40
2023-01-12T06:27:04.377Z,4.67
2023-01-12T06:29:31.285Z,5.60
2023-01-12T06:31:59.489Z,5.97
2023-01-12T06:34:26.426Z,4.33
2023-01-12T06:36:53.837Z,8.83
2023-01-12T06:39:26.956Z,5.50
2023-01-12T06:42:14.438Z,3.60
2023-01-12T06:44:41.406Z,4.63
2023-01-12T06:47:09.733Z,5.80
2023-01-12T06:49:36.588Z,4.23
2023-01-12T06:52:03.710Z,6.43
2023-01-12T06:54:30.980Z,6.47
2023-01-12T06:56:58.049Z,5.30
2023-01-12T06:59:24.977Z,6.27
2023-01-12T07:01:52.612Z,2.97
2023-01-12T07:04:21.064Z,2.70
2023-01-12T07:06:48.258Z,5.13
2023-01-12T07:09:15.242Z,4.27
2023-01-12T07:11:42.197Z,5.27
2023-01-12T07:14:09.387Z,4.77
2023-01-12T07:16:36.385Z,5.67
2023-01-12T07:19:03.530Z,4.27
2023-01-12T07:21:31.714Z,2.57
2023-01-12T07:23:58.638Z,2.47
2023-01-12T07:26:25.583Z,3.20
2023-01-12T07:28:52.468Z,5.23
2023-01-12T07:31:19.487Z,5.53
2023-01-12T07:33:46.564Z,2.37
2023-01-12T07:36:13.594Z,1.87
2023-01-12T07:38:43.393Z,6.43
2023-01-12T07:41:30.725Z,6.67
2023-01-12T07:43:58.294Z,3.07
2023-01-12T07:46:26.103Z,2.80
2023-01-12T07:48:53.024Z,1.90
2023-01-12T07:51:19.947Z,5.83
2023-01-12T07:53:49.098Z,3.67
2023-01-12T07:56:19.519Z,1.53
2023-01-12T07:58:48.385Z,3.03
2023-01-12T08:01:16.357Z,1.87
2023-01-12T08:03:43.344Z,3.63
2023-01-12T08:06:10.399Z,2.53
2023-01-12T08:08:37.439Z,2.07
2023-01-12T08:11:10.175Z,1.27
2023-01-12T08:13:38.890Z,1.80
2023-01-12T08:16:16.101Z,1.57
2023-01-12T08:18:49.545Z,3.37
2023-01-12T08:21:24.016Z,3.33
2023-01-12T08:23:56.195Z,1.53
2023-01-12T08:26:33.754Z,1.70
2023-01-12T08:29:08.236Z,1.20
2023-01-12T08:31:37.339Z,1.77
2023-01-12T08:34:07.262Z,2.27
2023-01-12T08:36:35.762Z,1.63
2023-01-12T08:39:04.298Z,3.53
2023-01-12T08:41:33.493Z,1.23
2023-01-12T08:44:01.903Z,2.13
2023-01-12T08:46:30.879Z,1.53
2023-01-12T08:48:58.182Z,1.70
2023-01-12T08:51:26.819Z,3.87
2023-01-12T08:53:53.814Z,3.57
2023-01-12T08:56:21.323Z,1.73
2023-01-12T08:58:49.770Z,1.10
2023-01-12T09:01:17.501Z,2.03
2023-01-12T09:03:44.621Z,1.53
2023-01-12T09:06:15.435Z,1.43
2023-01-12T09:08:43.942Z,1.20
2023-01-12T09:11:13.170Z,1.77
2023-01-12T09:13:40.875Z,2.60
2023-01-12T09:16:13.913Z,1.27
2023-01-12T09:18:41.358Z,1.87
2023-01-12T09:21:11.036Z,3.43
2023-01-12T09:23:39.369Z,1.23
2023-01-12T09:26:09.188Z,3.13
2023-01-12T09:28:37.287Z,0.97
2023-01-12T09:31:06.958Z,0.70
2023-01-12T09:33:36.612Z,1.13
2023-01-12T09:36:06.897Z,3.30
2023-01-12T09:38:37.523Z,0.77
2023-01-12T09:41:11.315Z,1.60
2023-01-12T09:43:59.097Z,1.23
2023-01-12T09:46:51.156Z,1.80
2023-01-12T09:49:26.598Z,1.07
2023-01-12T09:52:02.972Z,2.17
2023-01-12T09:54:34.742Z,0.97
2023-01-12T09:57:20.650Z,1.07
2023-01-12T10:00:03.347Z,3.57
2023-01-12T10:02:35.179Z,0.87
2023-01-12T10:05:13.683Z,1.10
2023-01-12T10:07:42.159Z,2.67
2023-01-12T10:10:14.535Z,1.17
2023-01-12T10:12:49.723Z,2.13
2023-01-12T10:15:33.203Z,2.20
2023-01-12T10:18:08.686Z,1.40
2023-01-12T10:20:40.210Z,1.10
2023-01-12T10:23:18.999Z,1.10
2023-01-12T10:25:48.858Z,1.03
2023-01-12T10:28:24.042Z,0.83
2023-01-12T10:30:53.586Z,0.73
2023-01-12T10:33:23.608Z,0.70
2023-01-12T10:35:58.221Z,1.13
2023-01-12T10:38:31.526Z,0.97
2023-01-12T10:41:17.355Z,1.03
2023-01-12T10:43:47.716Z,2.20
2023-01-12T10:46:16.969Z,0.70
2023-01-12T10:48:46.415Z,0.90
2023-01-12T10:51:27.327Z,1.50
2023-01-12T10:54:01.234Z,1.50
2023-01-12T10:56:39.395Z,1.13
2023-01-12T10:59:19.682Z,0.63
2023-01-12T11:01:51.993Z,0.53
2023-01-12T11:04:22.310Z,2.30
2023-01-12T11:07:04.828Z,1.43
2023-01-12T11:09:32.214Z,0.77
2023-01-12T11:12:02.477Z,1.63
2023-01-12T11:14:33.079Z,1.97
2023-01-12T11:17:22.731Z,0.77
2023-01-12T11:19:52.674Z,0.70
2023-01-12T11:22:27.591Z,0.93
2023-01-12T11:25:03.013Z,2.00
2023-01-12T11:27:35.827Z,0.60
2023-01-12T11:30:15.717Z,0.70
2023-01-12T11:32:49.506Z,2.57
2023-01-12T11:35:31.532Z,0.90
2023-01-12T11:38:09.010Z,1.27
2023-01-12T11:40:38.781Z,1.47
2023-01-12T11:43:45.304Z,1.73
2023-01-12T11:46:23.281Z,1.63
2023-01-12T11:49:01.913Z,1.40
2023-01-12T11:51:30.717Z,1.77
2023-01-12T11:54:00.123Z,2.37
2023-01-12T11:56:57.008Z,1.23
2023-01-12T11:59:36.285Z,2.13
2023-01-12T12:02:21.495Z,1.60
2023-01-12T12:05:05.888Z,3.40
2023-01-12T12:07:57.057Z,2.33
2023-01-12T12:10:33.634Z,1.53
2023-01-12T12:13:38.345Z,2.00
2023-01-12T12:16:28.128Z,2.07
2023-01-12T12:19:23.975Z,2.27
2023-01-12T12:22:04.398Z,1.23
2023-01-12T12:25:03.541Z,1.40
2023-01-12T12:27:59.871Z,1.33
2023-01-12T12:31:05.440Z,3.03
2023-01-12T12:33:58.815Z,4.33
2023-01-12T12:36:35.428Z,1.80
2023-01-12T12:39:59.121Z,2.20
2023-01-12T12:43:04.046Z,1.40
2023-01-12T12:45:45.514Z,2.47
2023-01-12T12:48:18.163Z,1.47
2023-01-12T12:50:57.966Z,2.03
2023-01-12T12:53:29.682Z,1.47
2023-01-12T12:56:01.734Z,1.23
2023-01-12T12:58:46.303Z,0.83
2023-01-12T13:02:05.128Z,1.83
2023-01-12T13:05:04.856Z,1.17
2023-01-12T13:07:43.357Z,1.97
2023-01-12T13:10:22.607Z,1.00
2023-01-12T13:13:32.810Z,1.27
2023-01-12T13:16:55.892Z,0.80
2023-01-12T13:19:41.635Z,0.80
2023-01-12T13:23:05.720Z,1.13
2023-01-12T13:26:29.872Z,1.37
2023-01-12T13:29:37.795Z,1.20
2023-01-12T13:32:43.659Z,0.90
2023-01-12T13:36:02.238Z,1.37
2023-01-12T13:39:10.656Z,1.20
2023-01-12T13:42:01.614Z,2.33
2023-01-12T13:44:40.877Z,3.27
2023-01-12T13:47:16.180Z,5.90
2023-01-12T13:49:58.859Z,2.50
2023-01-12T13:52:35.387Z,2.77
2023-01-12T13:55:19.356Z,2.77
2023-01-12T13:57:57.068Z,3.60
2023-01-12T14:00:25.811Z,2.27
2023-01-12T14:02:55.481Z,4.00
2023-01-12T14:05:59.160Z,2.80
2023-01-12T14:08:52.223Z,2.03
2023-01-12T14:11:45.892Z,2.03
2023-01-12T14:15:02.354Z,2.23
2023-01-12T14:17:49.552Z,2.20
2023-01-12T14:20:20.999Z,2.30
2023-01-12T14:22:50.254Z,2.53
2023-01-12T14:25:21.981Z,2.43
2023-01-12T14:27:51.736Z,1.70
2023-01-12T14:30:20.059Z,2.87
2023-01-12T14:32:49.810Z,0.87
2023-01-12T14:35:20.510Z,1.63
2023-01-12T14:37:55.260Z,1.43
2023-01-12T14:40:28.236Z,1.47
2023-01-12T14:43:15.253Z,1.00
2023-01-12T14:46:15.935Z,2.60
2023-01-12T14:48:54.757Z,1.03
2023-01-12T14:51:27.124Z,1.30
2023-01-12T14:54:02.972Z,1.77
2023-01-12T14:56:41.132Z,1.23
2023-01-12T14:59:15.320Z,1.80
2023-01-12T15:01:43.772Z,1.50
2023-01-12T15:04:18.936Z,2.63
2023-01-12T15:06:46.792Z,1.40
2023-01-12T15:09:30.475Z,1.67
2023-01-12T15:11:57.984Z,2.27
2023-01-12T15:14:29.288Z,2.33
2023-01-12T15:17:15.295Z,1.83
2023-01-12T15:20:01.037Z,1.33
2023-01-12T15:22:47.798Z,1.87
2023-01-12T15:25:36.857Z,2.13
2023-01-12T15:28:06.404Z,2.07
2023-01-12T15:30:38.683Z,2.47
2023-01-12T15:33:06.672Z,1.57
2023-01-12T15:35:35.357Z,2.63
2023-01-12T15:38:02.527Z,2.07
2023-01-12T15:40:34.566Z,2.07
2023-01-12T15:43:04.604Z,2.40
2023-01-12T15:45:35.377Z,2.23
2023-01-12T15:48:02.815Z,1.17
2023-01-12T15:50:31.285Z,0.90
2023-01-12T15:53:00.467Z,1.43
2023-01-12T15:55:35.778Z,1.40
2023-01-12T15:58:03.173Z,1.97
2023-01-12T16:00:30.924Z,1.10
2023-01-12T16:02:58.360Z,1.10
2023-01-12T16:05:28.732Z,1.27
2023-01-12T16:07:56.149Z,1.07
2023-01-12T16:10:24.206Z,1.60
2023-01-12T16:12:53.527Z,1.00
2023-01-12T16:15:23.962Z,1.30
2023-01-12T16:17:52.263Z,1.17
2023-01-12T16:20:21.190Z,1.27
2023-01-12T16:22:49.324Z,1.17
2023-01-12T16:25:17.485Z,1.50
2023-01-12T16:27:44.872Z,1.23
2023-01-12T16:30:16.005Z,1.00
2023-01-12T16:32:46.636Z,1.40
2023-01-12T16:35:15.615Z,1.30
2023-01-12T16:37:43.399Z,1.17
2023-01-12T16:40:12.713Z,1.20
2023-01-12T16:42:39.929Z,1.70
2023-01-12T16:45:08.954Z,1.97
2023-01-12T16:47:37.566Z,0.97
2023-01-12T16:50:06.401Z,1.80
2023-01-12T16:52:33.624Z,1.10
2023-01-12T16:55:01.005Z,1.03
2023-01-12T16:57:28.189Z,1.20
2023-01-12T16:59:55.058Z,1.40
2023-01-12T17:02:24.008Z,1.10
2023-01-12T17:04:53.192Z,1.23
2023-01-12T17:07:20.306Z,1.10
2023-01-12T17:09:47.256Z,2.67
2023-01-12T17:12:14.283Z,1.00
2023-01-12T17:14:41.348Z,1.07
2023-01-12T17:17:10.723Z,1.20
2023-01-12T17:19:42.901Z,1.30
2023-01-12T17:22:13.112Z,1.03
2023-01-12T17:24:40.998Z,2.70
2023-01-12T17:27:10.351Z,1.63
2023-01-12T17:29:37.632Z,1.60
2023-01-12T17:32:06.721Z,1.30
2023-01-12T17:34:37.998Z,1.40
2023-01-12T17:37:09.931Z,1.60
2023-01-12T17:39:40.056Z,1.50
2023-01-12T17:42:26.131Z,2.23
2023-01-12T17:44:53.154Z,1.50
2023-01-12T17:47:20.075Z,1.87
2023-01-12T17:49:47.906Z,2.00
2023-01-12T17:52:15.315Z,1.60
2023-01-12T17:54:43.609Z,1.50
2023-01-12T17:57:10.729Z,1.47
2023-01-12T17:59:37.812Z,1.30
2023-01-12T18:02:05.196Z,1.70
2023-01-12T18:04:32.569Z,2.13
2023-01-12T18:06:59.612Z,1.47
2023-01-12T18:09:27.929Z,1.70
2023-01-12T18:11:56.175Z,2.20
2023-01-12T18:14:24.865Z,1.63
2023-01-12T18:16:52.155Z,1.23
2023-01-12T18:19:19.183Z,1.40
2023-01-12T18:21:46.272Z,1.80
2023-01-12T18:24:13.170Z,1.60
2023-01-12T18:26:40.192Z,1.40
2023-01-12T18:29:08.521Z,0.93
2023-01-12T18:31:42.458Z,1.30
2023-01-12T18:34:10.953Z,1.17
2023-01-12T18:36:41.232Z,1.53
2023-01-12T18:39:14.072Z,1.33
2023-01-12T18:41:59.483Z,1.60
2023-01-12T18:44:27.956Z,1.47
2023-01-12T18:47:16.533Z,1.23
2023-01-12T18:49:48.865Z,1.47
2023-01-12T18:52:36.619Z,1.40
2023-01-12T18:55:05.185Z,1.87
2023-01-12T18:57:33.435Z,1.70
2023-01-12T19:00:15.274Z,1.30
2023-01-12T19:02:42.619Z,1.60
2023-01-12T19:05:30.917Z,1.67
2023-01-12T19:07:57.804Z,2.77
2023-01-12T19:10:25.450Z,1.30
2023-01-12T19:13:12.608Z,1.83
2023-01-12T19:16:00.611Z,1.60
2023-01-12T19:18:28.210Z,2.20
2023-01-12T19:21:15.066Z,1.50
2023-01-12T19:24:00.309Z,1.60
2023-01-12T19:26:47.096Z,3.17
2023-01-12T19:29:14.236Z,1.60
2023-01-12T19:31:42.842Z,1.10
2023-01-12T19:34:10.015Z,1.30
2023-01-12T19:36:36.907Z,1.20
2023-01-12T19:39:06.660Z,1.40
2023-01-12T19:41:52.507Z,1.40
2023-01-12T19:44:19.384Z,2.30
2023-01-12T19:46:48.007Z,1.77
2023-01-12T19:49:17.372Z,1.30
2023-01-12T19:51:46.036Z,1.37
2023-01-12T19:54:13.238Z,1.67
2023-01-12T19:56:40.192Z,1.97
2023-01-12T19:59:07.337Z,1.50
2023-01-12T20:01:34.389Z,1.50
2023-01-12T20:04:02.656Z,1.30
2023-01-12T20:06:29.908Z,0.97
2023-01-12T20:08:56.827Z,2.00
2023-01-12T20:11:23.680Z,1.70
2023-01-12T20:13:50.803Z,1.93
2023-01-12T20:16:18.033Z,0.97
2023-01-12T20:18:44.939Z,1.20
2023-01-12T20:21:13.565Z,1.03
2023-01-12T20:23:40.443Z,1.63
2023-01-12T20:26:11.147Z,1.23
2023-01-12T20:28:39.167Z,0.87
2023-01-12T20:31:10.324Z,1.20
2023-01-12T20:33:38.287Z,1.53
2023-01-12T20:36:09.609Z,1.50
2023-01-12T20:38:38.383Z,1.53
2023-01-12T20:41:06.401Z,2.27
2023-01-12T20:43:34.114Z,2.90
2023-01-12T20:46:01.083Z,1.37
2023-01-12T20:48:28.024Z,1.90
2023-01-12T20:50:56.187Z,1.70
2023-01-12T20:53:26.758Z,1.70
2023-01-12T20:55:54.957Z,2.03
2023-01-12T20:58:22.108Z,1.50
2023-01-12T21:00:49.996Z,1.40
2023-01-12T21:03:17.523Z,2.80
2023-01-12T21:05:47.039Z,1.60
2023-01-12T21:08:15.905Z,1.57
2023-01-12T21:10:49.905Z,1.50
2023-01-12T21:13:19.454Z,2.67
2023-01-12T21:15:46.875Z,1.70
2023-01-12T21:18:13.890Z,1.93
2023-01-12T21:20:42.589Z,1.63
2023-01-12T21:23:10.368Z,1.77
2023-01-12T21:25:41.884Z,1.27
2023-01-12T21:28:10.404Z,2.33
2023-01-12T21:30:39.369Z,1.30
2023-01-12T21:33:06.740Z,1.57
2023-01-12T21:35:34.328Z,1.53
2023-01-12T21:38:01.281Z,1.50
2023-01-12T21:40:28.277Z,1.53
2023-01-12T21:43:12.165Z,1.43
2023-01-12T21:45:43.574Z,1.30
2023-01-12T21:48:12.689Z,1.13
2023-01-12T21:50:40.208Z,1.27
2023-01-12T21:53:08.380Z,1.03
2023-01-12T21:55:35.720Z,1.10
2023-01-12T21:58:02.797Z,1.17
2023-01-12T22:00:30.678Z,1.73
2023-01-12T22:02:59.095Z,1.13
2023-01-12T22:05:26.664Z,1.40
2023-01-12T22:07:55.206Z,1.20
2023-01-12T22:10:25.149Z,1.27
2023-01-12T22:12:55.555Z,0.83
2023-01-12T22:15:24.620Z,1.20
2023-01-12T22:17:52.575Z,1.60
2023-01-12T22:20:22.376Z,1.30
2023-01-12T22:22:49.902Z,1.67
2023-01-12T22:25:18.018Z,1.30
2023-01-12T22:27:45.626Z,1.17
2023-01-12T22:30:16.722Z,1.40
2023-01-12T22:32:44.243Z,1.47
2023-01-12T22:35:12.406Z,1.17
2023-01-12T22:37:41.493Z,1.70
2023-01-12T22:40:11.471Z,1.37
2023-01-12T22:42:57.097Z,1.73
2023-01-12T22:45:24.044Z,1.90
2023-01-12T22:47:52.540Z,1.53
2023-01-12T22:50:19.896Z,1.93
2023-01-12T22:52:52.545Z,2.10
2023-01-12T22:55:20.926Z,2.33
2023-01-12T22:57:48.152Z,1.70
2023-01-12T23:00:17.638Z,2.13
2023-01-12T23:03:00.264Z,1.73
2023-01-12T23:05:29.879Z,2.43
2023-01-12T23:07:58.772Z,3.00
2023-01-12T23:10:26.230Z,2.30
2023-01-12T23:13:11.719Z,2.60
2023-01-12T23:15:40.318Z,2.33
2023-01-12T23:18:08.591Z,2.83
2023-01-12T23:20:36.736Z,3.87
2023-01-12T23:23:06.726Z,3.40
2023-01-12T23:25:35.906Z,2.00
2023-01-12T23:28:04.373Z,1.90
2023-01-12T23:30:32.918Z,2.00
2023-01-12T23:33:03.902Z,3.07
2023-01-12T23:35:35.913Z,1.80
2023-01-12T23:38:05.004Z,2.50
2023-01-12T23:40:32.579Z,1.80
2023-01-12T23:43:00.620Z,1.57
2023-01-12T23:45:28.003Z,1.60
2023-01-12T23:47:55.356Z,1.83
2023-01-12T23:50:22.434Z,2.37
2023-01-12T23:52:50.670Z,1.80
2023-01-12T23:55:19.243Z,1.27
2023-01-12T23:57:47.487Z,3.10
